Time;durP1;ratioP1;P1;durP2;ratioP2;P2;SDS_P1;SDS_P2;PMS_P1;PMS_P2;Temp;Humidity;BMP_temperature;BMP_pressure;BME280_temperature;BME280_humidity;BME280_pressure;Samples;Min_cycle;Max_cycle;Signal;HPM_P1;HPM_P2
2023/05/29 00:00:57;;;;;;;;;;;;;;;;;;5077000;28;19986;-63
2023/05/29 00:03:23;;;;;;;;;;;;;;;;;;5076940;28;19955;-63
2023/05/29 00:05:49;;;;;;;;;;;;;;;;;;5077188;28;20046;-63
2023/05/29 00:08:15;;;;;;;;;;;;;;;;;;5076853;28;19959;-63
2023/05/29 00:10:41;;;;;;;;;;;;;;;;;;5077055;28;20385;-63
2023/05/29 00:13:07;;;;;;;;;;;;;;;;;;5076774;28;20452;-64
2023/05/29 00:15:33;;;;;;;;;;;;;;;;;;5076649;28;20019;-63
2023/05/29 00:17:59;;;;;;;;;;;;;;;;;;5077581;28;20418;-63
2023/05/29 00:20:25;;;;;;;;;;;;;;;;;;5076669;28;19963;-63
2023/05/29 00:22:51;;;;;;;;;;;;;;;;;;5076552;28;20424;-63
2023/05/29 00:25:17;;;;;;;;;;;;;;;;;;5077134;28;19955;-63
2023/05/29 00:27:42;;;;;;;;;;;;;;;;;;5076519;28;20042;-64
2023/05/29 00:30:08;;;;;;;;;;;;;;;;;;5076472;28;19964;-63
2023/05/29 00:32:35;;;;;;;;;;;;;;;;;;5076677;28;20370;-63
2023/05/29 00:35:00;;;;;;;;;;;;;;;;;;5076300;28;19978;-63
2023/05/29 00:37:26;;;;;;;;;;;;;;;;;;5076336;28;20046;-64
2023/05/29 00:39:52;;;;;;;;;;;;;;;;;;5076813;28;19962;-63
2023/05/29 00:42:18;;;;;;;;;;;;;;;;;;5076150;28;20045;-63
2023/05/29 00:44:44;;;;;;;;;;;;;;;;;;5076757;28;19959;-63
2023/05/29 00:47:10;;;;;;;;;;;;;;;;;;5076115;28;19959;-63
2023/05/29 00:49:36;;;;;;;;;;;;;;;;;;5076109;28;20009;-63
2023/05/29 00:52:02;;;;;;;;;;;;;;;;;;5076658;28;20317;-63
2023/05/29 00:54:28;;;;;;;;;;;;;;;;;;5076561;28;19960;-63
2023/05/29 00:56:54;;;;;;;;;;;;;;;;;;5076168;28;19975;-63
2023/05/29 00:59:22;;;;;;;;;;;;;;;;;;5075951;28;19963;-63
2023/05/29 01:01:48;;;;;;;;;;;;;;;;;;5075628;28;20475;-63
2023/05/29 01:04:14;;;;;;;;;;;;;;;;;;5076347;28;19955;-63
2023/05/29 01:06:41;;;;;;;;;;;;;;;;;;5075838;28;20046;-64
2023/05/29 01:09:06;;;;;;;;;;;;;;;;;;5076033;28;19966;-62
2023/05/29 01:11:32;;;;;;;;;;;;;;;;;;5075689;28;19954;-63
2023/05/29 01:13:58;;;;;;;;;;;;;;;;;;5076238;28;20420;-63
2023/05/29 01:16:26;;;;;;;;;;;;;;;;;;5075787;28;19979;-63
2023/05/29 01:18:51;;;;;;;;;;;;;;;;;;5075606;28;20438;-63
2023/05/29 01:21:17;;;;;;;;;;;;;;;;;;5076156;28;19960;-63
2023/05/29 01:23:43;;;;;;;;;;;;;;;;;;5075446;28;19962;-63
2023/05/29 01:26:09;;;;;;;;;;;;;;;;;;5075693;28;19955;-63
2023/05/29 01:28:35;;;;;;;;;;;;;;;;;;5074154;28;20421;-63
2023/05/29 01:31:01;;;;;;;;;;;;;;;;;;5075579;28;20017;-63
2023/05/29 01:33:27;;;;;;;;;;;;;;;;;;5075165;28;20065;-63
2023/05/29 01:35:53;;;;;;;;;;;;;;;;;;5075447;28;19981;-63
2023/05/29 01:38:19;;;;;;;;;;;;;;;;;;5075163;28;20319;-63
2023/05/29 01:40:45;;;;;;;;;;;;;;;;;;5075659;28;19956;-63
2023/05/29 01:43:11;;;;;;;;;;;;;;;;;;5075445;28;19998;-63
2023/05/29 01:45:37;;;;;;;;;;;;;;;;;;5074997;28;20413;-63
2023/05/29 01:48:02;;;;;;;;;;;;;;;;;;5074961;28;19955;-63
2023/05/29 01:50:28;;;;;;;;;;;;;;;;;;5075533;28;20333;-63
2023/05/29 01:52:54;;;;;;;;;;;;;;;;;;5075136;28;20047;-63
2023/05/29 01:55:20;;;;;;;;;;;;;;;;;;5075335;28;19976;-63
2023/05/29 01:57:46;;;;;;;;;;;;;;;;;;5074763;28;19956;-63
2023/05/29 02:00:12;;;;;;;;;;;;;;;;;;5074760;28;19956;-63
2023/05/29 02:02:38;;;;;;;;;;;;;;;;;;5074661;28;19959;-62
2023/05/29 02:05:04;;;;;;;;;;;;;;;;;;5074666;28;19956;-63
2023/05/29 02:07:30;;;;;;;;;;;;;;;;;;5074621;28;19962;-63
2023/05/29 02:09:56;;;;;;;;;;;;;;;;;;5074607;28;20432;-63
2023/05/29 02:12:22;;;;;;;;;;;;;;;;;;5074490;28;19962;-63
2023/05/29 02:14:48;;;;;;;;;;;;;;;;;;5074289;28;19974;-63
2023/05/29 02:17:14;;;;;;;;;;;;;;;;;;5074337;28;20506;-62
2023/05/29 02:19:40;;;;;;;;;;;;;;;;;;5074979;28;20412;-63
2023/05/29 02:22:06;;;;;;;;;;;;;;;;;;5074312;28;19962;-63
2023/05/29 02:24:32;;;;;;;;;;;;;;;;;;5074290;28;20005;-62
2023/05/29 02:26:58;;;;;;;;;;;;;;;;;;5074497;28;20310;-63
2023/05/29 02:29:24;;;;;;;;;;;;;;;;;;5074147;28;20024;-63
2023/05/29 02:31:50;;;;;;;;;;;;;;;;;;5074690;28;19986;-63
2023/05/29 02:34:16;;;;;;;;;;;;;;;;;;5074041;28;20021;-63
2023/05/29 02:36:42;;;;;;;;;;;;;;;;;;5072704;28;19983;-62
2023/05/29 02:39:09;;;;;;;;;;;;;;;;;;5074041;28;19960;-63
2023/05/29 02:41:35;;;;;;;;;;;;;;;;;;5073892;28;20040;-63
2023/05/29 02:44:01;;;;;;;;;;;;;;;;;;5074298;28;19955;-63
2023/05/29 02:46:27;;;;;;;;;;;;;;;;;;5073953;28;20413;-62
2023/05/29 02:48:53;;;;;;;;;;;;;;;;;;5073876;28;19961;-63
2023/05/29 02:51:18;;;;;;;;;;;;;;;;;;5074112;28;19982;-62
2023/05/29 02:53:45;;;;;;;;;;;;;;;;;;5073829;28;19985;-64
2023/05/29 02:56:12;;;;;;;;;;;;;;;;;;5074517;28;19975;-63
2023/05/29 02:58:38;;;;;;;;;;;;;;;;;;5073804;28;20425;-63
2023/05/29 03:01:04;;;;;;;;;;;;;;;;;;5074295;28;20001;-62
2023/05/29 03:03:30;;;;;;;;;;;;;;;;;;5074002;28;20345;-63
2023/05/29 03:05:56;;;;;;;;;;;;;;;;;;5074286;28;19963;-63
2023/05/29 03:08:23;;;;;;;;;;;;;;;;;;5073918;28;19955;-63
2023/05/29 03:10:51;;;;;;;;;;;;;;;;;;5073878;28;19959;-62
2023/05/29 03:13:18;;;;;;;;;;;;;;;;;;5073931;28;19962;-63
2023/05/29 03:15:44;;;;;;;;;;;;;;;;;;5073758;28;20086;-63
2023/05/29 03:18:10;;;;;;;;;;;;;;;;;;5073829;28;20072;-63
2023/05/29 03:20:36;;;;;;;;;;;;;;;;;;5073493;28;19961;-63
2023/05/29 03:23:02;;;;;;;;;;;;;;;;;;5073545;28;19959;-63
2023/05/29 03:25:28;;;;;;;;;;;;;;;;;;5073740;28;19966;-63
2023/05/29 03:27:54;;;;;;;;;;;;;;;;;;5076050;28;20029;-63
2023/05/29 03:30:20;;;;;;;;;;;;;;;;;;5077693;28;19962;-63
2023/05/29 03:32:46;;;;;;;;;;;;;;;;;;5077604;28;19956;-64
2023/05/29 03:35:12;;;;;;;;;;;;;;;;;;5077357;28;19971;-64
2023/05/29 03:37:38;;;;;;;;;;;;;;;;;;5078043;28;19998;-63
2023/05/29 03:40:04;;;;;;;;;;;;;;;;;;5076154;28;19963;-62
2023/05/29 03:42:34;;;;;;;;;;;;;;;;;;5075861;28;20097;-65
2023/05/29 03:45:00;;;;;;;;;;;;;;;;;;5077636;28;19960;-65
2023/05/29 03:47:26;;;;;;;;;;;;;;;;;;5077338;28;20341;-65
2023/05/29 03:49:52;;;;;;;;;;;;;;;;;;5077577;28;20040;-65
2023/05/29 03:52:17;;;;;;;;;;;;;;;;;;5077780;28;19962;-65
2023/05/29 03:54:44;;;;;;;;;;;;;;;;;;5077173;28;19967;-64
2023/05/29 03:57:10;;;;;;;;;;;;;;;;;;5078134;28;20062;-64
2023/05/29 03:59:36;;;;;;;;;;;;;;;;;;5077352;28;19987;-65
2023/05/29 04:02:02;;;;;;;;;;;;;;;;;;5077130;28;19962;-64
2023/05/29 04:04:28;;;;;;;;;;;;;;;;;;5076990;28;20046;-65
2023/05/29 04:06:54;;;;;;;;;;;;;;;;;;5076941;28;20001;-65
2023/05/29 04:09:20;;;;;;;;;;;;;;;;;;5077214;28;19962;-65
2023/05/29 04:11:46;;;;;;;;;;;;;;;;;;5076862;28;20042;-64
2023/05/29 04:14:12;;;;;;;;;;;;;;;;;;5077065;28;19955;-65
2023/05/29 04:16:38;;;;;;;;;;;;;;;;;;5076659;28;19979;-66
2023/05/29 04:19:04;;;;;;;;;;;;;;;;;;5076727;28;20001;-65
2023/05/29 04:21:32;;;;;;;;;;;;;;;;;;5076643;28;20017;-63
2023/05/29 04:23:58;;;;;;;;;;;;;;;;;;5076659;28;19966;-63
2023/05/29 04:26:25;;;;;;;;;;;;;;;;;;5076858;28;20004;-63
2023/05/29 04:28:52;;;;;;;;;;;;;;;;;;5076788;28;19959;-63
2023/05/29 04:31:18;;;;;;;;;;;;;;;;;;5076768;28;19986;-62
2023/05/29 04:33:45;;;;;;;;;;;;;;;;;;5076911;28;19975;-63
2023/05/29 04:36:11;;;;;;;;;;;;;;;;;;5076660;28;20449;-62
2023/05/29 04:38:37;;;;;;;;;;;;;;;;;;5076187;28;20006;-64
2023/05/29 04:41:02;;;;;;;;;;;;;;;;;;5076138;28;19956;-64
2023/05/29 04:43:28;;;;;;;;;;;;;;;;;;5076266;28;20049;-65
2023/05/29 04:45:55;;;;;;;;;;;;;;;;;;5076221;28;19994;-64
2023/05/29 04:48:20;;;;;;;;;;;;;;;;;;5076480;28;19991;-65
2023/05/29 04:50:48;;;;;;;;;;;;;;;;;;5076079;28;20314;-65
2023/05/29 04:53:14;;;;;;;;;;;;;;;;;;5076024;28;20383;-65
2023/05/29 04:55:40;;;;;;;;;;;;;;;;;;5076453;28;20515;-65
2023/05/29 04:58:06;;;;;;;;;;;;;;;;;;5075994;28;19991;-64
2023/05/29 05:00:32;;;;;;;;;;;;;;;;;;5076224;28;20057;-64
2023/05/29 05:02:58;;;;;;;;;;;;;;;;;;5075960;28;20011;-65
2023/05/29 05:05:24;;;;;;;;;;;;;;;;;;5075850;28;19964;-65
2023/05/29 05:07:50;;;;;;;;;;;;;;;;;;5076355;28;19955;-65
2023/05/29 05:10:16;;;;;;;;;;;;;;;;;;5075762;28;19956;-64
2023/05/29 05:12:42;;;;;;;;;;;;;;;;;;5075763;28;20484;-65
2023/05/29 05:15:08;;;;;;;;;;;;;;;;;;5075575;28;19999;-66
2023/05/29 05:17:34;;;;;;;;;;;;;;;;;;5075921;28;19959;-64
2023/05/29 05:20:00;;;;;;;;;;;;;;;;;;5075845;28;19963;-65
2023/05/29 05:22:25;;;;;;;;;;;;;;;;;;5075482;28;19967;-65
2023/05/29 05:24:54;;;;;;;;;;;;;;;;;;5076075;28;19963;-65
2023/05/29 05:27:20;;;;;;;;;;;;;;;;;;5075724;28;19959;-64
2023/05/29 05:29:45;;;;;;;;;;;;;;;;;;5075663;28;20009;-65
2023/05/29 05:32:11;;;;;;;;;;;;;;;;;;5076151;28;20026;-65
2023/05/29 05:34:37;;;;;;;;;;;;;;;;;;5075192;28;19971;-65
2023/05/29 05:37:04;;;;;;;;;;;;;;;;;;5075194;28;20452;-65
2023/05/29 05:39:29;;;;;;;;;;;;;;;;;;5074780;28;20065;-65
2023/05/29 05:41:55;;;;;;;;;;;;;;;;;;5075341;28;20493;-65
2023/05/29 05:44:21;;;;;;;;;;;;;;;;;;5075090;28;19956;-66
2023/05/29 05:46:47;;;;;;;;;;;;;;;;;;5075314;28;19956;-65
2023/05/29 05:49:13;;;;;;;;;;;;;;;;;;5074362;28;20324;-66
2023/05/29 05:51:39;;;;;;;;;;;;;;;;;;5074739;28;19959;-65
2023/05/29 05:54:05;;;;;;;;;;;;;;;;;;5075183;28;19959;-65
2023/05/29 05:56:31;;;;;;;;;;;;;;;;;;5075579;28;19975;-65
2023/05/29 05:58:57;;;;;;;;;;;;;;;;;;5074802;28;20527;-63
2023/05/29 06:01:23;;;;;;;;;;;;;;;;;;5075307;28;20427;-62
2023/05/29 06:03:49;;;;;;;;;;;;;;;;;;5074997;28;19959;-62
2023/05/29 06:06:16;;;;;;;;;;;;;;;;;;5074684;28;19955;-63
2023/05/29 06:08:43;;;;;;;;;;;;;;;;;;5075203;28;19978;-63
2023/05/29 06:11:09;;;;;;;;;;;;;;;;;;5075338;28;20472;-62
2023/05/29 06:13:35;;;;;;;;;;;;;;;;;;5074458;28;20006;-63
2023/05/29 06:16:01;;;;;;;;;;;;;;;;;;5074677;28;20022;-62
2023/05/29 06:18:27;;;;;;;;;;;;;;;;;;5074443;28;19956;-63
2023/05/29 06:20:53;;;;;;;;;;;;;;;;;;5074604;28;20005;-63
2023/05/29 06:23:19;;;;;;;;;;;;;;;;;;5074329;28;20405;-63
2023/05/29 06:25:45;;;;;;;;;;;;;;;;;;5074311;28;19962;-63
2023/05/29 06:28:11;;;;;;;;;;;;;;;;;;5074241;28;20395;-62
2023/05/29 06:30:37;;;;;;;;;;;;;;;;;;5074441;28;19956;-64
2023/05/29 06:33:03;;;;;;;;;;;;;;;;;;5074150;28;19955;-63
2023/05/29 06:35:29;;;;;;;;;;;;;;;;;;5074295;28;19984;-63
2023/05/29 06:37:55;;;;;;;;;;;;;;;;;;5074040;28;20046;-63
2023/05/29 06:40:21;;;;;;;;;;;;;;;;;;5074328;28;19956;-63
2023/05/29 06:42:46;;;;;;;;;;;;;;;;;;5073547;28;20484;-63
2023/05/29 06:45:15;;;;;;;;;;;;;;;;;;5073980;28;19963;-63
2023/05/29 06:47:41;;;;;;;;;;;;;;;;;;5073944;28;19963;-63
2023/05/29 06:50:07;;;;;;;;;;;;;;;;;;5074168;28;19959;-62
2023/05/29 06:52:35;;;;;;;;;;;;;;;;;;5073047;28;20275;-62
2023/05/29 06:55:01;;;;;;;;;;;;;;;;;;5074114;28;19956;-63
2023/05/29 06:57:27;;;;;;;;;;;;;;;;;;5074233;28;19994;-63
2023/05/29 06:59:53;;;;;;;;;;;;;;;;;;5074062;28;19983;-63
2023/05/29 07:02:18;;;;;;;;;;;;;;;;;;5073640;28;20050;-63
2023/05/29 07:04:44;;;;;;;;;;;;;;;;;;5073724;28;19959;-63
2023/05/29 07:07:10;;;;;;;;;;;;;;;;;;5073933;28;20009;-63
2023/05/29 07:09:36;;;;;;;;;;;;;;;;;;5073698;28;19963;-63
2023/05/29 07:12:02;;;;;;;;;;;;;;;;;;5073911;28;19963;-63
2023/05/29 07:14:28;;;;;;;;;;;;;;;;;;5073624;28;19956;-64
2023/05/29 07:16:54;;;;;;;;;;;;;;;;;;5073812;28;19976;-63
2023/05/29 07:19:20;;;;;;;;;;;;;;;;;;5073531;28;19970;-63
2023/05/29 07:21:46;;;;;;;;;;;;;;;;;;5073805;28;20005;-62
2023/05/29 07:24:12;;;;;;;;;;;;;;;;;;5072256;28;20006;-63
2023/05/29 07:26:37;;;;;;;;;;;;;;;;;;5073488;28;19956;-63
2023/05/29 07:29:03;;;;;;;;;;;;;;;;;;5073745;28;20145;-62
2023/05/29 07:31:29;;;;;;;;;;;;;;;;;;5073428;28;19963;-63
2023/05/29 07:33:55;;;;;;;;;;;;;;;;;;5073626;28;19971;-63
2023/05/29 07:36:21;;;;;;;;;;;;;;;;;;5073321;28;20023;-63
2023/05/29 07:38:47;;;;;;;;;;;;;;;;;;5073932;28;20282;-63
2023/05/29 07:41:13;;;;;;;;;;;;;;;;;;5073444;28;19962;-63
2023/05/29 07:43:39;;;;;;;;;;;;;;;;;;5073657;28;20054;-63
2023/05/29 07:46:05;;;;;;;;;;;;;;;;;;5073421;28;19954;-63
2023/05/29 07:48:31;;;;;;;;;;;;;;;;;;5073299;28;20424;-63
2023/05/29 07:50:57;;;;;;;;;;;;;;;;;;5073586;28;19962;-63
2023/05/29 07:53:23;;;;;;;;;;;;;;;;;;5073317;28;20444;-63
2023/05/29 07:55:49;;;;;;;;;;;;;;;;;;5074223;28;19980;-63
2023/05/29 07:58:16;;;;;;;;;;;;;;;;;;5073247;28;19962;-63
2023/05/29 08:00:42;;;;;;;;;;;;;;;;;;5073423;28;20322;-63
2023/05/29 08:03:08;;;;;;;;;;;;;;;;;;5073704;28;19956;-63
2023/05/29 08:05:34;;;;;;;;;;;;;;;;;;5073174;28;19955;-63
2023/05/29 08:08:00;;;;;;;;;;;;;;;;;;5073669;28;20301;-63
2023/05/29 08:10:26;;;;;;;;;;;;;;;;;;5073066;28;19956;-63
2023/05/29 08:12:52;;;;;;;;;;;;;;;;;;5073838;28;20002;-64
2023/05/29 08:15:18;;;;;;;;;;;;;;;;;;5076769;28;19956;-64
2023/05/29 08:17:44;;;;;;;;;;;;;;;;;;5077000;28;19969;-64
2023/05/29 08:20:10;;;;;;;;;;;;;;;;;;5076976;28;19963;-63
2023/05/29 08:22:36;;;;;;;;;;;;;;;;;;5076973;28;19962;-63
2023/05/29 08:25:02;;;;;;;;;;;;;;;;;;5076560;28;20054;-64
2023/05/29 08:27:28;;;;;;;;;;;;;;;;;;5076790;28;19955;-63
2023/05/29 08:29:54;;;;;;;;;;;;;;;;;;5076780;28;20405;-63
2023/05/29 08:32:20;;;;;;;;;;;;;;;;;;5076756;28;19960;-63
2023/05/29 08:34:46;;;;;;;;;;;;;;;;;;5076336;28;19977;-64
2023/05/29 08:37:12;;;;;;;;;;;;;;;;;;5076282;28;19976;-63
2023/05/29 08:39:38;;;;;;;;;;;;;;;;;;5076628;28;20068;-63
2023/05/29 08:42:04;;;;;;;;;;;;;;;;;;5076124;28;19991;-63
2023/05/29 08:44:30;;;;;;;;;;;;;;;;;;5076825;28;20365;-63
2023/05/29 08:46:56;;;;;;;;;;;;;;;;;;5076239;28;20055;-64
2023/05/29 08:49:22;;;;;;;;;;;;;;;;;;5076229;28;20329;-63
2023/05/29 08:51:50;;;;;;;;;;;;;;;;;;5076123;28;19962;-63
2023/05/29 08:54:16;;;;;;;;;;;;;;;;;;5076330;28;19959;-63
2023/05/29 08:56:42;;;;;;;;;;;;;;;;;;5076813;28;19982;-63
2023/05/29 08:59:07;;;;;;;;;;;;;;;;;;5076277;28;20020;-63
2023/05/29 09:01:34;;;;;;;;;;;;;;;;;;5075968;28;19954;-63
2023/05/29 09:04:01;;;;;;;;;;;;;;;;;;5076218;28;19991;-64
2023/05/29 09:06:27;;;;;;;;;;;;;;;;;;5076148;28;20337;-64
2023/05/29 09:08:54;;;;;;;;;;;;;;;;;;5075839;28;20038;-63
2023/05/29 09:11:21;;;;;;;;;;;;;;;;;;5074497;28;20487;-64
2023/05/29 09:13:47;;;;;;;;;;;;;;;;;;5075664;28;19958;-64
2023/05/29 09:16:12;;;;;;;;;;;;;;;;;;5075891;28;19974;-64
2023/05/29 09:18:38;;;;;;;;;;;;;;;;;;5075636;28;19982;-65
2023/05/29 09:21:04;;;;;;;;;;;;;;;;;;5075601;28;19991;-64
2023/05/29 09:23:30;;;;;;;;;;;;;;;;;;5075435;28;19955;-64
2023/05/29 09:25:56;;;;;;;;;;;;;;;;;;5074352;28;19956;-64
2023/05/29 09:28:23;;;;;;;;;;;;;;;;;;5075698;28;19961;-64
2023/05/29 09:30:49;;;;;;;;;;;;;;;;;;5075338;28;19962;-63
2023/05/29 09:33:15;;;;;;;;;;;;;;;;;;5075588;28;19963;-64
2023/05/29 09:35:41;;;;;;;;;;;;;;;;;;5075578;28;19981;-63
2023/05/29 09:38:07;;;;;;;;;;;;;;;;;;5075486;28;19959;-64
2023/05/29 09:40:33;;;;;;;;;;;;;;;;;;5075221;28;19955;-64
2023/05/29 09:42:59;;;;;;;;;;;;;;;;;;5074917;28;19995;-64
2023/05/29 09:45:25;;;;;;;;;;;;;;;;;;5075438;28;19955;-64
2023/05/29 09:47:51;;;;;;;;;;;;;;;;;;5075863;28;19956;-64
2023/05/29 09:50:17;;;;;;;;;;;;;;;;;;5075030;28;19954;-63
2023/05/29 09:52:43;;;;;;;;;;;;;;;;;;5075555;28;20046;-64
2023/05/29 09:55:10;;;;;;;;;;;;;;;;;;5075210;28;19964;-64
2023/05/29 09:57:36;;;;;;;;;;;;;;;;;;5075310;28;20333;-64
2023/05/29 10:00:03;;;;;;;;;;;;;;;;;;5074759;28;19967;-64
2023/05/29 10:02:30;;;;;;;;;;;;;;;;;;5074998;28;19970;-63
2023/05/29 10:04:56;;;;;;;;;;;;;;;;;;5075032;28;20046;-64
2023/05/29 10:07:21;;;;;;;;;;;;;;;;;;5074870;28;20002;-63
2023/05/29 10:09:50;;;;;;;;;;;;;;;;;;5075180;28;19962;-64
2023/05/29 10:12:16;;;;;;;;;;;;;;;;;;5074572;28;19956;-63
2023/05/29 10:14:42;;;;;;;;;;;;;;;;;;5074535;28;20021;-64
2023/05/29 10:17:08;;;;;;;;;;;;;;;;;;5074406;28;20049;-64
2023/05/29 10:19:34;;;;;;;;;;;;;;;;;;5074428;28;19956;-64
2023/05/29 10:22:00;;;;;;;;;;;;;;;;;;5074375;28;19991;-64
2023/05/29 10:24:26;;;;;;;;;;;;;;;;;;5074898;28;19962;-64
2023/05/29 10:26:52;;;;;;;;;;;;;;;;;;5074286;28;19955;-64
2023/05/29 10:29:18;;;;;;;;;;;;;;;;;;5074256;28;19963;-64
2023/05/29 10:31:45;;;;;;;;;;;;;;;;;;5074465;28;19971;-64
2023/05/29 10:34:11;;;;;;;;;;;;;;;;;;5074402;28;19990;-64
2023/05/29 10:36:37;;;;;;;;;;;;;;;;;;5073621;28;19974;-64
2023/05/29 10:39:03;;;;;;;;;;;;;;;;;;5074065;28;19987;-64
2023/05/29 10:41:28;;;;;;;;;;;;;;;;;;5074033;28;20089;-64
2023/05/29 10:43:55;;;;;;;;;;;;;;;;;;5074014;28;19960;-64
2023/05/29 10:46:20;;;;;;;;;;;;;;;;;;5074309;28;19955;-64
2023/05/29 10:48:46;;;;;;;;;;;;;;;;;;5073948;28;19962;-64
2023/05/29 10:51:12;;;;;;;;;;;;;;;;;;5074510;28;20360;-63
2023/05/29 10:53:40;;;;;;;;;;;;;;;;;;5074180;28;20124;-64
2023/05/29 10:56:06;;;;;;;;;;;;;;;;;;5074234;28;19987;-64
2023/05/29 10:58:32;;;;;;;;;;;;;;;;;;5074101;28;19956;-64
2023/05/29 11:00:58;;;;;;;;;;;;;;;;;;5073773;28;20055;-64
2023/05/29 11:03:25;;;;;;;;;;;;;;;;;;5074063;28;19993;-64
2023/05/29 11:05:50;;;;;;;;;;;;;;;;;;5073766;28;19963;-64
2023/05/29 11:08:16;;;;;;;;;;;;;;;;;;5073714;28;19954;-63
2023/05/29 11:10:43;;;;;;;;;;;;;;;;;;5074231;28;20308;-63
2023/05/29 11:13:09;;;;;;;;;;;;;;;;;;5073894;28;20357;-64
2023/05/29 11:15:35;;;;;;;;;;;;;;;;;;5074138;28;20037;-64
2023/05/29 11:18:01;;;;;;;;;;;;;;;;;;5073610;28;19994;-63
2023/05/29 11:20:27;;;;;;;;;;;;;;;;;;5073809;28;19955;-63
2023/05/29 11:22:53;;;;;;;;;;;;;;;;;;5073795;28;19963;-64
2023/05/29 11:25:19;;;;;;;;;;;;;;;;;;5073497;28;20028;-63
2023/05/29 11:27:45;;;;;;;;;;;;;;;;;;5074124;28;19963;-63
2023/05/29 11:30:11;;;;;;;;;;;;;;;;;;5073826;28;19963;-64
2023/05/29 11:32:37;;;;;;;;;;;;;;;;;;5074036;28;20282;-64
2023/05/29 11:35:03;;;;;;;;;;;;;;;;;;5073636;28;20022;-64
2023/05/29 11:37:31;;;;;;;;;;;;;;;;;;5073356;28;20398;-63
2023/05/29 11:39:57;;;;;;;;;;;;;;;;;;5073470;28;19963;-64
2023/05/29 11:42:23;;;;;;;;;;;;;;;;;;5073167;28;19998;-64
2023/05/29 11:44:49;;;;;;;;;;;;;;;;;;5073914;28;19958;-63
2023/05/29 11:47:15;;;;;;;;;;;;;;;;;;5073268;28;20005;-64
2023/05/29 11:49:41;;;;;;;;;;;;;;;;;;5076683;28;20325;-64
2023/05/29 11:52:07;;;;;;;;;;;;;;;;;;5077135;28;19955;-64
2023/05/29 11:54:33;;;;;;;;;;;;;;;;;;5076957;28;19961;-63
2023/05/29 11:57:00;;;;;;;;;;;;;;;;;;5077477;28;20019;-63
2023/05/29 11:59:26;;;;;;;;;;;;;;;;;;5077107;28;19969;-63
2023/05/29 12:01:52;;;;;;;;;;;;;;;;;;5077484;28;20425;-63
2023/05/29 12:04:17;;;;;;;;;;;;;;;;;;5077245;28;19998;-64
2023/05/29 12:06:44;;;;;;;;;;;;;;;;;;5077567;28;19956;-63
2023/05/29 12:09:10;;;;;;;;;;;;;;;;;;5077258;28;19960;-63
2023/05/29 12:11:36;;;;;;;;;;;;;;;;;;5077129;28;20016;-63
2023/05/29 12:14:02;;;;;;;;;;;;;;;;;;5077455;28;19956;-64
2023/05/29 12:16:28;;;;;;;;;;;;;;;;;;5077546;28;20510;-64
2023/05/29 12:18:53;;;;;;;;;;;;;;;;;;5076726;28;19956;-64
2023/05/29 12:21:19;;;;;;;;;;;;;;;;;;5077261;28;20280;-64
2023/05/29 12:23:45;;;;;;;;;;;;;;;;;;5076983;28;20383;-64
2023/05/29 12:26:11;;;;;;;;;;;;;;;;;;5077484;28;19991;-64
2023/05/29 12:28:37;;;;;;;;;;;;;;;;;;5076847;28;19962;-64
2023/05/29 12:31:03;;;;;;;;;;;;;;;;;;5076535;28;20298;-64
2023/05/29 12:33:29;;;;;;;;;;;;;;;;;;5076419;28;20017;-63
2023/05/29 12:35:55;;;;;;;;;;;;;;;;;;5076975;28;20014;-64
2023/05/29 12:38:22;;;;;;;;;;;;;;;;;;5076688;28;19963;-64
2023/05/29 12:40:48;;;;;;;;;;;;;;;;;;5076409;28;19986;-64
2023/05/29 12:43:14;;;;;;;;;;;;;;;;;;5075963;28;20488;-64
2023/05/29 12:45:40;;;;;;;;;;;;;;;;;;5076542;28;20047;-64
2023/05/29 12:48:06;;;;;;;;;;;;;;;;;;5076226;28;19960;-63
2023/05/29 12:50:32;;;;;;;;;;;;;;;;;;5076156;28;20058;-63
2023/05/29 12:52:58;;;;;;;;;;;;;;;;;;5076177;28;20040;-64
2023/05/29 12:55:24;;;;;;;;;;;;;;;;;;5076332;28;19963;-64
2023/05/29 12:57:50;;;;;;;;;;;;;;;;;;5076872;28;20419;-64
2023/05/29 13:00:16;;;;;;;;;;;;;;;;;;5075779;28;19956;-64
2023/05/29 13:02:42;;;;;;;;;;;;;;;;;;5076239;28;20059;-63
2023/05/29 13:05:08;;;;;;;;;;;;;;;;;;5075871;28;19963;-64
2023/05/29 13:07:34;;;;;;;;;;;;;;;;;;5076169;28;19956;-64
2023/05/29 13:10:01;;;;;;;;;;;;;;;;;;5076035;28;20375;-63
2023/05/29 13:12:27;;;;;;;;;;;;;;;;;;5075831;28;20013;-64
2023/05/29 13:14:55;;;;;;;;;;;;;;;;;;5075728;28;19959;-64
2023/05/29 13:17:21;;;;;;;;;;;;;;;;;;5075671;28;20029;-64
2023/05/29 13:19:47;;;;;;;;;;;;;;;;;;5075951;28;19959;-63
2023/05/29 13:22:13;;;;;;;;;;;;;;;;;;5075915;28;19956;-63
2023/05/29 13:24:39;;;;;;;;;;;;;;;;;;5075592;28;19959;-63
2023/05/29 13:27:05;;;;;;;;;;;;;;;;;;5076113;28;20105;-64
2023/05/29 13:29:31;;;;;;;;;;;;;;;;;;5075446;28;19956;-63
2023/05/29 13:31:57;;;;;;;;;;;;;;;;;;5075694;28;19959;-63
2023/05/29 13:34:28;;;;;;;;;;;;;;;;;;5075275;28;19975;-64
2023/05/29 13:36:54;;;;;;;;;;;;;;;;;;5076124;28;20001;-64
2023/05/29 13:39:20;;;;;;;;;;;;;;;;;;5075154;28;19956;-63
2023/05/29 13:41:45;;;;;;;;;;;;;;;;;;5075204;28;19998;-64
2023/05/29 13:44:11;;;;;;;;;;;;;;;;;;5075754;28;19955;-63
2023/05/29 13:46:37;;;;;;;;;;;;;;;;;;5075440;28;19995;-64
2023/05/29 13:49:03;;;;;;;;;;;;;;;;;;5075627;28;19954;-64
2023/05/29 13:51:29;;;;;;;;;;;;;;;;;;5075005;28;20421;-63
2023/05/29 13:53:55;;;;;;;;;;;;;;;;;;5074966;28;20050;-63
2023/05/29 13:56:22;;;;;;;;;;;;;;;;;;5075349;28;19975;-63
2023/05/29 13:58:48;;;;;;;;;;;;;;;;;;5075452;28;20316;-64
2023/05/29 14:01:15;;;;;;;;;;;;;;;;;;5074669;28;19955;-63
2023/05/29 14:03:41;;;;;;;;;;;;;;;;;;5074957;28;19958;-64
2023/05/29 14:06:06;;;;;;;;;;;;;;;;;;5074827;28;19962;-63
2023/05/29 14:08:32;;;;;;;;;;;;;;;;;;5074471;28;19956;-63
2023/05/29 14:10:58;;;;;;;;;;;;;;;;;;5074203;28;20382;-64
2023/05/29 14:13:24;;;;;;;;;;;;;;;;;;5074477;28;19956;-64
2023/05/29 14:15:50;;;;;;;;;;;;;;;;;;5074738;28;20026;-64
2023/05/29 14:18:16;;;;;;;;;;;;;;;;;;5074531;28;19956;-64
2023/05/29 14:20:42;;;;;;;;;;;;;;;;;;5074337;28;19956;-64
2023/05/29 14:23:13;;;;;;;;;;;;;;;;;;5074335;28;19955;-64
2023/05/29 14:25:39;;;;;;;;;;;;;;;;;;5074854;28;20037;-63
2023/05/29 14:28:06;;;;;;;;;;;;;;;;;;5074296;28;19994;-64
2023/05/29 14:30:32;;;;;;;;;;;;;;;;;;5073825;28;19985;-64
2023/05/29 14:32:58;;;;;;;;;;;;;;;;;;5074375;28;20061;-63
2023/05/29 14:35:24;;;;;;;;;;;;;;;;;;5074221;28;20487;-63
2023/05/29 14:37:50;;;;;;;;;;;;;;;;;;5074780;28;19960;-64
2023/05/29 14:40:16;;;;;;;;;;;;;;;;;;5074256;28;20060;-63
2023/05/29 14:42:41;;;;;;;;;;;;;;;;;;5073840;28;19991;-63
2023/05/29 14:45:07;;;;;;;;;;;;;;;;;;5073998;28;20016;-64
2023/05/29 14:47:33;;;;;;;;;;;;;;;;;;5073984;28;20000;-64
2023/05/29 14:49:59;;;;;;;;;;;;;;;;;;5074235;28;20006;-64
2023/05/29 14:52:25;;;;;;;;;;;;;;;;;;5074494;28;20409;-64
2023/05/29 14:54:51;;;;;;;;;;;;;;;;;;5073799;28;19960;-64
2023/05/29 14:57:17;;;;;;;;;;;;;;;;;;5074245;28;20440;-64
2023/05/29 14:59:43;;;;;;;;;;;;;;;;;;5073707;28;19956;-63
2023/05/29 15:02:09;;;;;;;;;;;;;;;;;;5074243;28;20432;-63
2023/05/29 15:04:35;;;;;;;;;;;;;;;;;;5073780;28;19964;-63
2023/05/29 15:07:01;;;;;;;;;;;;;;;;;;5073750;28;19960;-64
2023/05/29 15:09:27;;;;;;;;;;;;;;;;;;5073709;28;19955;-64
2023/05/29 15:11:53;;;;;;;;;;;;;;;;;;5073978;28;19955;-64
2023/05/29 15:14:19;;;;;;;;;;;;;;;;;;5073671;28;20054;-63
2023/05/29 15:16:45;;;;;;;;;;;;;;;;;;5073875;28;19979;-63
2023/05/29 15:19:10;;;;;;;;;;;;;;;;;;5073618;28;20324;-64
2023/05/29 15:21:36;;;;;;;;;;;;;;;;;;5073524;28;20050;-64
2023/05/29 15:24:02;;;;;;;;;;;;;;;;;;5074126;28;20359;-64
2023/05/29 15:26:28;;;;;;;;;;;;;;;;;;5073516;28;19956;-63
2023/05/29 15:28:54;;;;;;;;;;;;;;;;;;5074093;28;20397;-63
2023/05/29 15:31:22;;;;;;;;;;;;;;;;;;5073719;28;19987;-64
2023/05/29 15:33:48;;;;;;;;;;;;;;;;;;5073439;28;20494;-63
2023/05/29 15:36:15;;;;;;;;;;;;;;;;;;5073833;28;19975;-64
2023/05/29 15:38:41;;;;;;;;;;;;;;;;;;5073377;28;19954;-64
2023/05/29 15:41:07;;;;;;;;;;;;;;;;;;5073260;28;20322;-63
2023/05/29 15:43:33;;;;;;;;;;;;;;;;;;5073395;28;20324;-63
2023/05/29 15:45:59;;;;;;;;;;;;;;;;;;5073678;28;19959;-63
2023/05/29 15:48:25;;;;;;;;;;;;;;;;;;5073405;28;20487;-64
2023/05/29 15:50:51;;;;;;;;;;;;;;;;;;5073846;28;19955;-63
2023/05/29 15:53:17;;;;;;;;;;;;;;;;;;5073291;28;19998;-63
2023/05/29 15:55:43;;;;;;;;;;;;;;;;;;5073361;28;19975;-64
2023/05/29 15:58:09;;;;;;;;;;;;;;;;;;5074089;28;20002;-63
2023/05/29 16:00:36;;;;;;;;;;;;;;;;;;5073434;28;19969;-63
2023/05/29 16:03:02;;;;;;;;;;;;;;;;;;5073185;28;20009;-63
2023/05/29 16:05:28;;;;;;;;;;;;;;;;;;5073221;28;19955;-64
2023/05/29 16:07:54;;;;;;;;;;;;;;;;;;5073077;28;20378;-64
2023/05/29 16:10:19;;;;;;;;;;;;;;;;;;5073095;28;19959;-63
2023/05/29 16:12:46;;;;;;;;;;;;;;;;;;5073351;28;20316;-64
2023/05/29 16:15:12;;;;;;;;;;;;;;;;;;5073039;28;19962;-64
2023/05/29 16:17:38;;;;;;;;;;;;;;;;;;5072955;28;19976;-64
2023/05/29 16:20:04;;;;;;;;;;;;;;;;;;5073195;28;19965;-63
2023/05/29 16:22:31;;;;;;;;;;;;;;;;;;5072997;28;20482;-63
2023/05/29 16:24:57;;;;;;;;;;;;;;;;;;5072981;28;19955;-64
2023/05/29 16:27:23;;;;;;;;;;;;;;;;;;5073434;28;20463;-63
2023/05/29 16:29:49;;;;;;;;;;;;;;;;;;5073128;28;19978;-63
2023/05/29 16:32:15;;;;;;;;;;;;;;;;;;5073101;28;20384;-63
2023/05/29 16:34:42;;;;;;;;;;;;;;;;;;5074688;28;19971;-63
2023/05/29 16:37:08;;;;;;;;;;;;;;;;;;5076626;28;20018;-63